Aviation Digital Data Service (ADDS)

Output produced by TAFs form (1746 UTC 31 October 2014)
found at http://aviationweather.gov/adds/tafs/
 
KTEX 311736Z 3118/0118 15012G18KT P6SM SCT120 BKN200 
     FM010200 13004KT P6SM VCSH SCT080 BKN120 
     FM010600 13009KT P6SM VCSH BKN080 
     FM011300 13010G16KT P6SM BKN100